Time;durP1;ratioP1;P1;durP2;ratioP2;P2;SDS_P1;SDS_P2;PMS_P1;PMS_P2;Temp;Humidity;BMP_temperature;BMP_pressure;BME280_temperature;BME280_humidity;BME280_pressure;Samples;Min_cycle;Max_cycle;Signal;HPM_P1;HPM_P2
2023/01/01 00:01:15;;;;;;;20.45;12.52;;;;;;;;;;5117060;28;20039;-86
2023/01/01 00:03:40;;;;;;;18.02;11.80;;;;;;;;;;5115287;28;20027;-85
2023/01/01 00:06:12;;;;;;;17.27;12.00;;;;;;;;;;5115389;28;20505;-85
2023/01/01 00:08:38;;;;;;;17.60;11.77;;;;;;;;;;5098142;28;20383;-85
2023/01/01 00:11:05;;;;;;;13.48;10.85;;;;;;;;;;5116920;28;20036;-85
2023/01/01 00:13:31;;;;;;;26.55;11.43;;;;;;;;;;5115594;28;20104;-86
2023/01/01 00:16:04;;;;;;;18.58;11.80;;;;;;;;;;5116690;28;20055;-85
2023/01/01 00:18:29;;;;;;;18.77;11.13;;;;;;;;;;5115354;28;20489;-87
2023/01/01 00:21:06;;;;;;;16.05;10.18;;;;;;;;;;5115607;28;20027;-87
2023/01/01 00:23:33;;;;;;;16.35;10.18;;;;;;;;;;5113607;28;20107;-86
2023/01/01 00:25:58;;;;;;;15.45;10.70;;;;;;;;;;5116030;28;20122;-86
2023/01/01 00:28:23;;;;;;;15.02;10.15;;;;;;;;;;5115286;28;20114;-87
2023/01/01 00:30:49;;;;;;;16.48;9.95;;;;;;;;;;5115322;28;20028;-86
2023/01/01 00:33:14;;;;;;;18.13;10.45;;;;;;;;;;5115141;28;20022;-88
2023/01/01 00:35:40;;;;;;;13.60;9.48;;;;;;;;;;5116446;28;20096;-86
2023/01/01 00:38:05;;;;;;;15.07;9.13;;;;;;;;;;5115077;28;20027;-86
2023/01/01 00:40:31;;;;;;;15.70;9.80;;;;;;;;;;5116540;28;20031;-84
2023/01/01 00:42:56;;;;;;;12.20;8.65;;;;;;;;;;5116119;28;20055;-86
2023/01/01 00:45:21;;;;;;;12.15;8.73;;;;;;;;;;5114717;28;20070;-86
2023/01/01 00:47:47;;;;;;;12.55;8.30;;;;;;;;;;5115941;28;20553;-87
2023/01/01 00:50:13;;;;;;;13.15;8.95;;;;;;;;;;5114968;28;20047;-85
2023/01/01 00:52:38;;;;;;;12.68;8.60;;;;;;;;;;5114965;28;20500;-85
2023/01/01 00:55:04;;;;;;;14.90;8.88;;;;;;;;;;5115023;28;20111;-88
2023/01/01 00:57:29;;;;;;;13.02;8.50;;;;;;;;;;5114513;28;20036;-88
2023/01/01 00:59:54;;;;;;;18.73;8.55;;;;;;;;;;5115852;28;20042;-89
2023/01/01 01:02:20;;;;;;;16.77;8.20;;;;;;;;;;5116491;28;20024;-89
2023/01/01 01:04:45;;;;;;;16.10;8.50;;;;;;;;;;5115689;28;20454;-88
2023/01/01 01:07:11;;;;;;;13.18;8.38;;;;;;;;;;5114505;28;20104;-88
2023/01/01 01:09:36;;;;;;;12.50;7.53;;;;;;;;;;5114541;28;20023;-88
2023/01/01 01:12:01;;;;;;;10.48;7.43;;;;;;;;;;5114887;28;20069;-88
2023/01/01 01:14:27;;;;;;;11.50;7.32;;;;;;;;;;5115603;28;20059;-87
2023/01/01 01:16:52;;;;;;;14.18;7.82;;;;;;;;;;5115756;28;20049;-85
2023/01/01 01:19:18;;;;;;;15.75;8.48;;;;;;;;;;5114609;28;20024;-84
2023/01/01 01:21:46;;;;;;;17.55;6.75;;;;;;;;;;5115216;28;20031;-87
2023/01/01 01:24:11;;;;;;;10.18;6.80;;;;;;;;;;5115219;28;20335;-87
2023/01/01 01:26:37;;;;;;;14.98;7.30;;;;;;;;;;5096777;28;20030;-88
2023/01/01 01:29:02;;;;;;;9.15;6.25;;;;;;;;;;5114307;28;20031;-87
2023/01/01 01:31:30;;;;;;;12.48;6.40;;;;;;;;;;5114750;28;20035;-82
2023/01/01 01:33:56;;;;;;;16.17;5.93;;;;;;;;;;5097044;28;20416;-85
2023/01/01 01:36:22;;;;;;;11.85;5.60;;;;;;;;;;5115289;28;20023;-83
2023/01/01 01:38:47;;;;;;;14.50;6.60;;;;;;;;;;5114816;28;20038;-83
2023/01/01 01:41:14;;;;;;;9.18;5.05;;;;;;;;;;5114871;28;20038;-83
2023/01/01 01:43:39;;;;;;;9.75;5.00;;;;;;;;;;5114453;28;20019;-84
2023/01/01 01:46:13;;;;;;;9.43;5.07;;;;;;;;;;5115357;28;20081;-83
2023/01/01 01:48:42;;;;;;;9.77;4.78;;;;;;;;;;5114093;28;20081;-83
2023/01/01 01:51:08;;;;;;;10.02;5.30;;;;;;;;;;5114572;28;20096;-83
2023/01/01 01:53:37;;;;;;;7.85;4.63;;;;;;;;;;5113937;28;20024;-83
2023/01/01 01:56:07;;;;;;;8.02;4.18;;;;;;;;;;5114102;28;20485;-83
2023/01/01 01:58:33;;;;;;;7.85;4.70;;;;;;;;;;5113735;28;20047;-83
2023/01/01 02:00:59;;;;;;;11.27;4.18;;;;;;;;;;5113599;28;20046;-83
2023/01/01 02:03:30;;;;;;;8.48;4.15;;;;;;;;;;5097656;28;20051;-83
2023/01/01 02:05:56;;;;;;;12.02;4.10;;;;;;;;;;5096584;28;20438;-83
2023/01/01 02:08:22;;;;;;;9.30;4.47;;;;;;;;;;5113616;28;20035;-83
2023/01/01 02:10:47;;;;;;;6.88;3.72;;;;;;;;;;5113947;28;20035;-84
2023/01/01 02:13:13;;;;;;;6.93;3.80;;;;;;;;;;5096375;28;20039;-84
2023/01/01 02:15:44;;;;;;;8.35;4.53;;;;;;;;;;5113503;28;20029;-83
2023/01/01 02:18:13;;;;;;;7.82;3.72;;;;;;;;;;5113315;28;20053;-83
2023/01/01 02:21:16;;;;;;;8.93;3.80;;;;;;;;;;5113773;28;20438;-83
2023/01/01 02:24:05;;;;;;;12.27;3.05;;;;;;;;;;5013686;28;20394;-83
2023/01/01 02:26:57;;;;;;;9.98;4.32;;;;;;;;;;5114917;28;20024;-83
2023/01/01 02:29:39;;;;;;;9.93;3.40;;;;;;;;;;5067064;28;20039;-84
2023/01/01 02:32:11;;;;;;;5.72;3.03;;;;;;;;;;5114880;28;20130;-84
2023/01/01 02:34:56;;;;;;;10.75;3.33;;;;;;;;;;5113367;28;20370;-84
2023/01/01 02:37:23;;;;;;;6.70;2.92;;;;;;;;;;5113096;28;20484;-83
2023/01/01 02:39:58;;;;;;;5.35;2.90;;;;;;;;;;5112986;28;20400;-83
2023/01/01 02:42:25;;;;;;;5.68;3.00;;;;;;;;;;5114265;28;20027;-83
2023/01/01 02:44:53;;;;;;;5.10;2.80;;;;;;;;;;5113122;28;20035;-83
2023/01/01 02:47:19;;;;;;;5.82;2.80;;;;;;;;;;5112979;28;20031;-82
2023/01/01 02:50:10;;;;;;;7.68;2.97;;;;;;;;;;5112864;28;20035;-83
2023/01/01 02:52:45;;;;;;;5.90;2.80;;;;;;;;;;5095790;28;20668;-84
2023/01/01 02:55:45;;;;;;;9.75;2.67;;;;;;;;;;5114313;28;20102;-83
2023/01/01 03:01:30;;;;;;;9.27;2.55;;;;;;;;;;5112898;28;20058;-82
2023/01/01 03:04:14;;;;;;;5.53;2.53;;;;;;;;;;5113582;28;20019;-83
2023/01/01 03:07:02;;;;;;;8.52;2.80;;;;;;;;;;5113963;28;20146;-84
2023/01/01 03:10:09;;;;;;;4.75;2.60;;;;;;;;;;5098997;28;20125;-83
2023/01/01 03:12:42;;;;;;;7.07;2.40;;;;;;;;;;5073654;28;20067;-83
2023/01/01 03:15:18;;;;;;;4.20;2.25;;;;;;;;;;5113387;28;20066;-84
2023/01/01 03:18:05;;;;;;;3.05;2.30;;;;;;;;;;5112373;28;20038;-83
2023/01/01 03:20:32;;;;;;;6.35;2.10;;;;;;;;;;5113759;28;20023;-83
2023/01/01 03:23:02;;;;;;;4.80;2.38;;;;;;;;;;5112604;28;20461;-84
2023/01/01 03:25:31;;;;;;;5.95;2.10;;;;;;;;;;5095318;28;20114;-84
2023/01/01 03:28:10;;;;;;;4.15;1.90;;;;;;;;;;5112664;28;20020;-83
2023/01/01 03:30:37;;;;;;;6.43;2.28;;;;;;;;;;5112593;28;20045;-83
2023/01/01 03:33:07;;;;;;;3.75;2.03;;;;;;;;;;5096095;28;20119;-84
2023/01/01 03:35:38;;;;;;;4.18;1.90;;;;;;;;;;5113766;28;20102;-84
2023/01/01 03:38:09;;;;;;;4.28;2.00;;;;;;;;;;5112268;28;20020;-84
2023/01/01 03:40:36;;;;;;;3.35;1.90;;;;;;;;;;5113506;28;20106;-84
2023/01/01 03:43:08;;;;;;;6.65;1.90;;;;;;;;;;5113469;28;20024;-84
2023/01/01 03:45:38;;;;;;;3.67;2.08;;;;;;;;;;5112072;28;20051;-84
2023/01/01 03:48:04;;;;;;;7.03;2.05;;;;;;;;;;5112106;28;20035;-83
2023/01/01 03:50:40;;;;;;;2.88;1.73;;;;;;;;;;5112396;28;20470;-83
2023/01/01 03:53:16;;;;;;;3.60;1.55;;;;;;;;;;5112294;28;20031;-83
2023/01/01 03:55:49;;;;;;;3.40;1.67;;;;;;;;;;5112060;28;20080;-85
2023/01/01 03:58:29;;;;;;;2.78;1.67;;;;;;;;;;5111808;28;20040;-84
2023/01/01 04:01:02;;;;;;;4.72;1.80;;;;;;;;;;5094796;28;20474;-84
2023/01/01 04:03:28;;;;;;;9.30;1.73;;;;;;;;;;5111870;28;20392;-84
2023/01/01 04:05:54;;;;;;;2.97;1.80;;;;;;;;;;5111946;28;20435;-84
2023/01/01 04:08:20;;;;;;;4.65;2.38;;;;;;;;;;5113393;28;20032;-84
2023/01/01 04:10:49;;;;;;;6.45;1.95;;;;;;;;;;5112107;28;20076;-84
2023/01/01 04:13:14;;;;;;;8.40;2.08;;;;;;;;;;5111993;28;20497;-83
2023/01/01 04:15:40;;;;;;;6.38;1.73;;;;;;;;;;5112340;28;20027;-83
2023/01/01 04:18:05;;;;;;;6.32;1.63;;;;;;;;;;5113109;28;20023;-84
2023/01/01 04:20:31;;;;;;;6.00;1.92;;;;;;;;;;5111952;28;20382;-83
2023/01/01 04:22:57;;;;;;;4.60;1.42;;;;;;;;;;5111979;28;20432;-84
2023/01/01 04:25:22;;;;;;;3.78;2.03;;;;;;;;;;5111789;28;20023;-84
2023/01/01 04:27:48;;;;;;;5.80;1.60;;;;;;;;;;5116132;28;20020;-84
2023/01/01 04:30:14;;;;;;;3.47;1.40;;;;;;;;;;5115562;28;20500;-84
2023/01/01 04:32:39;;;;;;;3.78;1.55;;;;;;;;;;5117121;27;20141;-84
2023/01/01 04:35:06;;;;;;;4.72;1.50;;;;;;;;;;5115820;28;20020;-83
2023/01/01 04:37:31;;;;;;;2.97;1.52;;;;;;;;;;5098903;28;20039;-83
2023/01/01 04:39:56;;;;;;;3.10;1.48;;;;;;;;;;5116505;28;20031;-84
2023/01/01 04:42:22;;;;;;;2.30;1.50;;;;;;;;;;5116629;28;20073;-84
2023/01/01 04:44:47;;;;;;;3.45;1.50;;;;;;;;;;5116706;28;20036;-83
2023/01/01 04:47:13;;;;;;;3.92;1.45;;;;;;;;;;5116595;28;20503;-84
2023/01/01 04:49:38;;;;;;;4.95;1.33;;;;;;;;;;5115187;28;20039;-85
2023/01/01 04:52:03;;;;;;;4.40;1.48;;;;;;;;;;5115208;28;20023;-84
2023/01/01 04:54:29;;;;;;;5.28;1.52;;;;;;;;;;5115748;28;20027;-84
2023/01/01 04:56:54;;;;;;;3.47;1.63;;;;;;;;;;5098024;28;20024;-84
2023/01/01 04:59:20;;;;;;;3.35;1.20;;;;;;;;;;5116211;28;20562;-83
2023/01/01 05:01:45;;;;;;;8.30;1.45;;;;;;;;;;5115023;28;20036;-83
2023/01/01 05:04:15;;;;;;;4.80;1.77;;;;;;;;;;5115369;28;20420;-83
2023/01/01 05:06:41;;;;;;;7.00;1.45;;;;;;;;;;5116415;28;20031;-84
2023/01/01 05:09:08;;;;;;;3.60;1.50;;;;;;;;;;5115144;28;20474;-83
2023/01/01 05:11:34;;;;;;;4.20;1.98;;;;;;;;;;5116585;28;20028;-83
2023/01/01 05:14:00;;;;;;;8.00;1.50;;;;;;;;;;5116889;28;20082;-84
2023/01/01 05:16:31;;;;;;;5.43;1.63;;;;;;;;;;5116834;28;20019;-84
2023/01/01 05:18:56;;;;;;;6.03;1.83;;;;;;;;;;5115029;28;20534;-83
2023/01/01 05:21:27;;;;;;;4.32;1.60;;;;;;;;;;5116353;28;20070;-83
2023/01/01 05:23:54;;;;;;;5.25;1.90;;;;;;;;;;5116237;28;20031;-84
2023/01/01 05:26:22;;;;;;;3.85;2.10;;;;;;;;;;5114656;28;20035;-84
2023/01/01 05:28:48;;;;;;;6.55;1.70;;;;;;;;;;5114879;28;20080;-84
2023/01/01 05:31:16;;;;;;;2.60;1.50;;;;;;;;;;5097850;28;20074;-83
2023/01/01 05:33:42;;;;;;;2.38;1.27;;;;;;;;;;5115866;28;20032;-84
2023/01/01 05:36:09;;;;;;;4.18;1.40;;;;;;;;;;5097670;28;20031;-84
2023/01/01 05:38:35;;;;;;;3.08;1.20;;;;;;;;;;5115758;28;20023;-84
2023/01/01 05:41:08;;;;;;;3.40;1.60;;;;;;;;;;5114944;28;20080;-84
2023/01/01 05:43:34;;;;;;;4.85;1.60;;;;;;;;;;5114646;28;20083;-84
2023/01/01 05:46:04;;;;;;;3.13;1.45;;;;;;;;;;5114343;28;20043;-84
2023/01/01 05:48:30;;;;;;;6.78;1.50;;;;;;;;;;5114780;28;20046;-84
2023/01/01 05:51:12;;;;;;;2.85;1.40;;;;;;;;;;5114473;28;20020;-84
2023/01/01 05:53:37;;;;;;;4.47;1.30;;;;;;;;;;5114825;28;20089;-83
2023/01/01 05:56:04;;;;;;;2.83;1.38;;;;;;;;;;5114624;28;20020;-83
2023/01/01 05:58:31;;;;;;;3.72;1.30;;;;;;;;;;5114135;28;20414;-84
2023/01/01 06:01:00;;;;;;;2.47;1.30;;;;;;;;;;5115339;27;20073;-84
2023/01/01 06:03:25;;;;;;;5.28;1.83;;;;;;;;;;5114413;28;20031;-84
2023/01/01 06:05:51;;;;;;;6.75;1.90;;;;;;;;;;5115308;28;20084;-83
2023/01/01 06:08:16;;;;;;;5.28;1.20;;;;;;;;;;5114457;28;20031;-83
2023/01/01 06:10:41;;;;;;;4.43;1.40;;;;;;;;;;5115490;28;20111;-83
2023/01/01 06:13:07;;;;;;;7.55;1.60;;;;;;;;;;5115263;28;20061;-84
2023/01/01 06:15:33;;;;;;;5.53;1.67;;;;;;;;;;5115085;28;20026;-84
2023/01/01 06:17:58;;;;;;;4.68;1.40;;;;;;;;;;5114308;28;20028;-84
2023/01/01 06:20:24;;;;;;;3.47;1.40;;;;;;;;;;5115373;28;20474;-83
2023/01/01 06:22:49;;;;;;;4.13;1.23;;;;;;;;;;5113860;28;20035;-84
2023/01/01 06:25:14;;;;;;;6.53;1.27;;;;;;;;;;5114764;28;20059;-85
2023/01/01 06:27:40;;;;;;;4.78;1.20;;;;;;;;;;5113829;28;20027;-84
2023/01/01 06:30:06;;;;;;;4.80;1.55;;;;;;;;;;5115245;28;20564;-84
2023/01/01 06:32:32;;;;;;;4.38;1.67;;;;;;;;;;5113920;28;20027;-84
2023/01/01 06:34:57;;;;;;;3.20;1.33;;;;;;;;;;5115404;28;20035;-84
2023/01/01 06:37:22;;;;;;;4.05;1.48;;;;;;;;;;5114819;27;20027;-84
2023/01/01 06:39:48;;;;;;;6.78;1.13;;;;;;;;;;5114638;28;20028;-84
2023/01/01 06:42:13;;;;;;;8.07;1.20;;;;;;;;;;5114606;28;20049;-84
2023/01/01 06:44:39;;;;;;;2.28;1.08;;;;;;;;;;5114517;28;20026;-84
2023/01/01 06:47:04;;;;;;;2.13;1.30;;;;;;;;;;5113676;28;20038;-84
2023/01/01 06:49:30;;;;;;;3.38;1.20;;;;;;;;;;5112688;28;20031;-84
2023/01/01 06:51:55;;;;;;;3.53;1.45;;;;;;;;;;5114755;28;20035;-84
2023/01/01 06:54:21;;;;;;;5.22;1.25;;;;;;;;;;5114414;28;20114;-83
2023/01/01 06:56:46;;;;;;;5.00;1.38;;;;;;;;;;5113437;28;20053;-84
2023/01/01 06:59:11;;;;;;;3.25;1.23;;;;;;;;;;5112902;28;20055;-85
2023/01/01 07:01:40;;;;;;;3.83;1.20;;;;;;;;;;5113158;28;20082;-86
2023/01/01 07:04:10;;;;;;;3.03;1.40;;;;;;;;;;5114603;28;20036;-85
2023/01/01 07:06:36;;;;;;;4.22;1.40;;;;;;;;;;5113069;28;20028;-82
2023/01/01 07:09:02;;;;;;;4.07;1.30;;;;;;;;;;5112911;28;20496;-82
2023/01/01 07:11:27;;;;;;;2.20;1.15;;;;;;;;;;5095880;28;20027;-82
2023/01/01 07:13:53;;;;;;;8.20;1.60;;;;;;;;;;5114135;28;20031;-85
2023/01/01 07:16:19;;;;;;;3.45;1.10;;;;;;;;;;5112859;28;20015;-84
2023/01/01 07:18:44;;;;;;;2.63;1.35;;;;;;;;;;5112965;28;20438;-84
2023/01/01 07:21:24;;;;;;;4.63;1.38;;;;;;;;;;5113108;28;20119;-82
2023/01/01 07:23:49;;;;;;;2.35;1.20;;;;;;;;;;5112758;28;20062;-85
2023/01/01 07:26:14;;;;;;;2.72;1.20;;;;;;;;;;5112430;28;20063;-82
2023/01/01 07:28:40;;;;;;;2.95;1.40;;;;;;;;;;5112873;28;20039;-81
2023/01/01 07:31:05;;;;;;;7.15;1.50;;;;;;;;;;5111956;28;20031;-81
2023/01/01 07:33:30;;;;;;;3.65;1.30;;;;;;;;;;5112004;28;20081;-81
2023/01/01 07:35:56;;;;;;;2.55;1.10;;;;;;;;;;5113203;28;20024;-81
2023/01/01 07:38:21;;;;;;;2.80;1.17;;;;;;;;;;5111924;28;20043;-81
2023/01/01 07:40:47;;;;;;;14.90;1.75;;;;;;;;;;5113156;28;20034;-81
2023/01/01 07:43:13;;;;;;;3.00;0.90;;;;;;;;;;5113001;28;20035;-81
2023/01/01 07:45:39;;;;;;;4.20;1.17;;;;;;;;;;5111835;28;20028;-81
2023/01/01 07:48:04;;;;;;;2.15;1.10;;;;;;;;;;5111842;28;20482;-81
2023/01/01 07:50:31;;;;;;;1.83;0.80;;;;;;;;;;5112993;28;20028;-82
2023/01/01 07:52:56;;;;;;;6.60;1.05;;;;;;;;;;5113188;28;20478;-81
2023/01/01 07:55:22;;;;;;;2.03;1.00;;;;;;;;;;5111756;28;20034;-82
2023/01/01 07:57:48;;;;;;;4.05;1.42;;;;;;;;;;5111641;28;20027;-82
2023/01/01 08:00:16;;;;;;;2.67;1.05;;;;;;;;;;5113293;28;20056;-80
2023/01/01 08:02:42;;;;;;;3.55;0.88;;;;;;;;;;5115955;28;20032;-82
2023/01/01 08:05:08;;;;;;;5.18;1.25;;;;;;;;;;5116783;28;20539;-80
2023/01/01 08:07:33;;;;;;;6.10;1.10;;;;;;;;;;5115819;28;20051;-80
2023/01/01 08:09:58;;;;;;;3.72;1.35;;;;;;;;;;5115747;28;20549;-79
2023/01/01 08:12:24;;;;;;;4.18;1.25;;;;;;;;;;5115568;28;20027;-80
2023/01/01 08:14:50;;;;;;;2.67;1.15;;;;;;;;;;5115673;28;20023;-80
2023/01/01 08:17:15;;;;;;;5.90;1.02;;;;;;;;;;5098812;28;20099;-81
2023/01/01 08:19:40;;;;;;;4.88;1.02;;;;;;;;;;5098477;28;20553;-81
2023/01/01 08:22:06;;;;;;;5.97;1.38;;;;;;;;;;5116753;28;20059;-80
2023/01/01 08:24:31;;;;;;;3.83;1.48;;;;;;;;;;5116667;27;20032;-80
2023/01/01 08:26:57;;;;;;;5.15;1.33;;;;;;;;;;5115375;28;20401;-80
2023/01/01 08:29:22;;;;;;;1.70;0.80;;;;;;;;;;5116565;28;20500;-80
2023/01/01 08:31:47;;;;;;;3.50;1.15;;;;;;;;;;5115273;28;20033;-80
2023/01/01 08:34:13;;;;;;;2.33;1.10;;;;;;;;;;5115326;28;20123;-81
2023/01/01 08:36:39;;;;;;;2.85;1.00;;;;;;;;;;5116410;28;20077;-80
2023/01/01 08:39:06;;;;;;;4.78;1.20;;;;;;;;;;5115201;28;20028;-79
2023/01/01 08:41:32;;;;;;;2.92;0.80;;;;;;;;;;5114977;28;20458;-79
2023/01/01 08:43:57;;;;;;;3.08;1.23;;;;;;;;;;5115136;28;20046;-79
2023/01/01 08:46:22;;;;;;;1.75;1.00;;;;;;;;;;5114937;28;20076;-80
2023/01/01 08:48:48;;;;;;;2.83;1.35;;;;;;;;;;5115445;28;20071;-80
2023/01/01 08:51:13;;;;;;;4.53;1.45;;;;;;;;;;5115776;28;20035;-80
2023/01/01 08:53:38;;;;;;;3.80;1.40;;;;;;;;;;5117102;28;20039;-80
2023/01/01 08:56:06;;;;;;;3.15;1.00;;;;;;;;;;5116790;28;20027;-80
2023/01/01 08:58:34;;;;;;;2.22;1.13;;;;;;;;;;5115139;28;20044;-79
2023/01/01 09:01:01;;;;;;;3.10;1.00;;;;;;;;;;5115370;28;20096;-80
2023/01/01 09:03:26;;;;;;;4.07;1.17;;;;;;;;;;5115601;28;20047;-79
2023/01/01 09:05:52;;;;;;;6.00;1.05;;;;;;;;;;5115316;28;20032;-80
2023/01/01 09:08:18;;;;;;;2.72;1.10;;;;;;;;;;5116828;28;20042;-80
2023/01/01 09:10:43;;;;;;;4.75;1.38;;;;;;;;;;5116345;28;20038;-80
2023/01/01 09:13:12;;;;;;;3.13;1.02;;;;;;;;;;5114402;28;20023;-81
2023/01/01 09:15:38;;;;;;;2.35;0.90;;;;;;;;;;5115704;28;20415;-81
2023/01/01 09:18:04;;;;;;;2.33;0.80;;;;;;;;;;5115142;28;20032;-81
2023/01/01 09:20:29;;;;;;;3.30;0.98;;;;;;;;;;5115073;28;20098;-82
2023/01/01 09:22:55;;;;;;;3.20;0.90;;;;;;;;;;5115088;28;20402;-82
2023/01/01 09:25:20;;;;;;;14.23;2.67;;;;;;;;;;5116868;28;20031;-88
2023/01/01 09:27:45;;;;;;;15.73;3.38;;;;;;;;;;5115001;28;20024;-87
2023/01/01 09:30:11;;;;;;;14.23;2.70;;;;;;;;;;5115043;28;20390;-84
2023/01/01 09:32:37;;;;;;;10.70;2.33;;;;;;;;;;5116496;27;20039;-88
2023/01/01 09:35:03;;;;;;;16.30;3.33;;;;;;;;;;5116708;27;20036;-85
2023/01/01 09:37:30;;;;;;;9.98;2.47;;;;;;;;;;5116442;28;20107;-89
2023/01/01 09:39:55;;;;;;;20.80;4.57;;;;;;;;;;5115477;28;20032;-86
2023/01/01 09:42:27;;;;;;;9.25;2.15;;;;;;;;;;5114782;28;20159;-88
2023/01/01 09:45:00;;;;;;;10.50;2.42;;;;;;;;;;5115996;28;20107;-87
2023/01/01 09:47:30;;;;;;;;;;;;;;;;;;5114940;28;20027;-84
2023/01/01 09:50:00;;;;;;;6.50;2.03;;;;;;;;;;5115720;28;19911;-84
2023/01/01 09:52:36;;;;;;;12.60;2.50;;;;;;;;;;5105300;28;20554;-84
2023/01/01 09:55:11;;;;;;;6.28;1.63;;;;;;;;;;5104435;28;20026;-84
2023/01/01 09:57:38;;;;;;;7.35;1.80;;;;;;;;;;5100602;28;20026;-86
2023/01/01 10:00:12;;;;;;;7.30;1.60;;;;;;;;;;5075586;28;20052;-85
2023/01/01 10:03:02;;;;;;;12.75;1.88;;;;;;;;;;5093541;28;20104;-84
2023/01/01 10:05:42;;;;;;;6.80;1.60;;;;;;;;;;5094679;28;20031;-86
2023/01/01 10:08:29;;;;;;;7.68;2.00;;;;;;;;;;5093582;28;20028;-87
2023/01/01 10:11:12;;;;;;;6.65;1.75;;;;;;;;;;5094163;28;20074;-85
2023/01/01 10:13:41;;;;;;;7.10;1.90;;;;;;;;;;5095407;28;20024;-87
2023/01/01 10:16:22;;;;;;;6.75;1.67;;;;;;;;;;5100167;28;20051;-86
2023/01/01 10:18:52;;;;;;;9.15;1.80;;;;;;;;;;5095783;28;20035;-86
2023/01/01 10:21:22;;;;;;;10.23;1.80;;;;;;;;;;5076595;28;20036;-87
2023/01/01 10:23:52;;;;;;;4.85;1.70;;;;;;;;;;5093954;28;20490;-87
2023/01/01 10:26:20;;;;;;;6.93;1.45;;;;;;;;;;5093411;28;20060;-87
2023/01/01 10:28:53;;;;;;;5.75;1.98;;;;;;;;;;5093333;28;20148;-86
2023/01/01 10:31:30;;;;;;;6.65;1.55;;;;;;;;;;5093312;28;20340;-87
2023/01/01 10:33:56;;;;;;;7.00;1.20;;;;;;;;;;5093466;28;20486;-87
2023/01/01 10:36:22;;;;;;;5.68;1.58;;;;;;;;;;5076324;28;20059;-86
2023/01/01 10:38:48;;;;;;;6.53;1.55;;;;;;;;;;5094746;28;20034;-87
2023/01/01 10:41:14;;;;;;;2.42;1.05;;;;;;;;;;5093207;28;20519;-87
2023/01/01 10:43:40;;;;;;;5.65;1.75;;;;;;;;;;5092937;28;20032;-87
2023/01/01 10:46:10;;;;;;;4.60;1.35;;;;;;;;;;5094243;28;20118;-87
2023/01/01 10:48:35;;;;;;;4.63;1.15;;;;;;;;;;5075860;28;20372;-85
2023/01/01 10:51:03;;;;;;;5.25;1.20;;;;;;;;;;5094548;28;20081;-86
2023/01/01 10:53:35;;;;;;;4.13;1.27;;;;;;;;;;5092635;28;20043;-85
2023/01/01 10:56:09;;;;;;;5.60;1.60;;;;;;;;;;5093257;28;20111;-85
2023/01/01 10:58:46;;;;;;;4.03;1.38;;;;;;;;;;5092724;28;20072;-85
2023/01/01 11:01:22;;;;;;;3.90;1.38;;;;;;;;;;5094372;28;20035;-87
2023/01/01 11:04:01;;;;;;;2.45;1.38;;;;;;;;;;5093059;28;20111;-84
2023/01/01 11:06:31;;;;;;;4.95;1.80;;;;;;;;;;5094158;28;20050;-84
2023/01/01 11:08:58;;;;;;;3.33;1.33;;;;;;;;;;5092958;28;20016;-85
2023/01/01 11:11:29;;;;;;;5.55;1.30;;;;;;;;;;5092776;28;20020;-85
2023/01/01 11:13:58;;;;;;;4.53;1.40;;;;;;;;;;5092779;28;20035;-84
2023/01/01 11:16:24;;;;;;;5.13;1.65;;;;;;;;;;5093187;28;20019;-85
2023/01/01 11:18:50;;;;;;;5.30;1.50;;;;;;;;;;5093168;28;20028;-85
2023/01/01 11:21:21;;;;;;;4.40;1.27;;;;;;;;;;5095872;28;20395;-86
2023/01/01 11:23:48;;;;;;;11.32;1.70;;;;;;;;;;5104953;28;20032;-84
2023/01/01 11:26:16;;;;;;;3.85;1.15;;;;;;;;;;5103590;28;20110;-83
2023/01/01 11:28:41;;;;;;;5.05;1.55;;;;;;;;;;5096533;28;20026;-83
2023/01/01 11:31:14;;;;;;;6.20;1.48;;;;;;;;;;5096610;28;20027;-83
2023/01/01 11:33:49;;;;;;;6.65;1.70;;;;;;;;;;5100894;28;20027;-84
2023/01/01 11:36:33;;;;;;;6.68;1.33;;;;;;;;;;5103059;28;20115;-84
2023/01/01 11:39:04;;;;;;;4.93;1.63;;;;;;;;;;5107187;28;20028;-83
2023/01/01 11:41:43;;;;;;;4.65;1.50;;;;;;;;;;5094808;28;20012;-80
2023/01/01 11:44:11;;;;;;;5.68;1.48;;;;;;;;;;5092915;28;20032;-84
2023/01/01 11:46:36;;;;;;;9.40;1.15;;;;;;;;;;5103300;28;20028;-85
2023/01/01 11:49:02;;;;;;;8.50;1.30;;;;;;;;;;5101813;28;20493;-86
2023/01/01 11:51:30;;;;;;;2.97;1.10;;;;;;;;;;5100188;28;20047;-85
2023/01/01 11:54:23;;;;;;;4.53;1.50;;;;;;;;;;5099492;28;20023;-85
2023/01/01 11:56:51;;;;;;;4.07;1.45;;;;;;;;;;5092521;28;20028;-85
2023/01/01 11:59:21;;;;;;;4.72;1.45;;;;;;;;;;5111760;28;20067;-85
2023/01/01 12:01:53;;;;;;;3.75;1.35;;;;;;;;;;5111992;28;20088;-85
2023/01/01 12:04:43;;;;;;;4.07;1.20;;;;;;;;;;5112104;28;20465;-85
2023/01/01 12:07:11;;;;;;;3.83;1.38;;;;;;;;;;5112170;28;20407;-83
2023/01/01 12:09:46;;;;;;;6.03;1.98;;;;;;;;;;5113130;28;20034;-84
2023/01/01 12:12:34;;;;;;;5.20;1.83;;;;;;;;;;5111669;28;20391;-84
2023/01/01 12:15:21;;;;;;;4.25;1.42;;;;;;;;;;5111730;28;20476;-85
2023/01/01 12:17:53;;;;;;;3.72;1.35;;;;;;;;;;5113072;28;20034;-84
2023/01/01 12:20:25;;;;;;;3.92;1.42;;;;;;;;;;5112147;28;20051;-86
2023/01/01 12:22:54;;;;;;;6.40;1.50;;;;;;;;;;5113309;28;20041;-80
2023/01/01 12:25:19;;;;;;;3.30;1.17;;;;;;;;;;5111392;28;20036;-81
2023/01/01 12:27:54;;;;;;;6.22;1.40;;;;;;;;;;5111124;28;20055;-82
2023/01/01 12:30:23;;;;;;;4.13;1.60;;;;;;;;;;5111799;28;20028;-82
2023/01/01 12:32:58;;;;;;;5.30;1.70;;;;;;;;;;5111540;28;20059;-82
2023/01/01 12:35:29;;;;;;;5.75;1.50;;;;;;;;;;5112883;28;20496;-83
2023/01/01 12:38:33;;;;;;;4.18;1.45;;;;;;;;;;5113165;28;20059;-82
2023/01/01 12:41:11;;;;;;;3.53;1.42;;;;;;;;;;5112587;28;20070;-83
2023/01/01 12:43:44;;;;;;;5.53;1.80;;;;;;;;;;5111396;28;20024;-82
2023/01/01 12:46:54;;;;;;;4.20;1.60;;;;;;;;;;5112848;28;20566;-81
2023/01/01 12:49:38;;;;;;;5.07;1.50;;;;;;;;;;5113697;28;20137;-82
2023/01/01 12:52:13;;;;;;;4.28;1.73;;;;;;;;;;5116855;28;20016;-83
2023/01/01 12:54:47;;;;;;;6.47;1.65;;;;;;;;;;5116902;28;20300;-79
2023/01/01 12:57:29;;;;;;;5.22;1.65;;;;;;;;;;5097909;28;20029;-80
2023/01/01 12:59:55;;;;;;;5.47;2.10;;;;;;;;;;5114916;28;20043;-82
2023/01/01 13:02:22;;;;;;;4.68;2.00;;;;;;;;;;5097787;28;20527;-81
2023/01/01 13:04:51;;;;;;;4.05;1.60;;;;;;;;;;5109610;28;20039;-82
2023/01/01 13:07:29;;;;;;;8.65;2.08;;;;;;;;;;5106672;28;20012;-82
2023/01/01 13:09:55;;;;;;;2.97;1.38;;;;;;;;;;5105131;28;20016;-83
2023/01/01 13:12:23;;;;;;;6.82;1.80;;;;;;;;;;5102954;28;20048;-83
2023/01/01 13:14:49;;;;;;;5.38;1.88;;;;;;;;;;5104016;28;20026;-82
2023/01/01 13:17:26;;;;;;;6.07;2.05;;;;;;;;;;5104859;28;20051;-83
2023/01/01 13:19:59;;;;;;;6.75;2.33;;;;;;;;;;5110042;28;20020;-82
2023/01/01 13:22:24;;;;;;;6.28;1.55;;;;;;;;;;5086799;28;20042;-82
2023/01/01 13:25:09;;;;;;;8.10;1.95;;;;;;;;;;5103977;28;20025;-82
2023/01/01 13:28:00;;;;;;;3.75;1.40;;;;;;;;;;5105966;28;20027;-83
2023/01/01 13:30:34;;;;;;;3.58;1.70;;;;;;;;;;5098201;28;20449;-81
2023/01/01 13:33:25;;;;;;;6.40;1.85;;;;;;;;;;5102611;28;20052;-82
2023/01/01 13:36:16;;;;;;;2.63;1.42;;;;;;;;;;5109268;28;20027;-86
2023/01/01 13:38:49;;;;;;;4.82;1.65;;;;;;;;;;5098213;28;20030;-85
2023/01/01 13:43:58;;;;;;;10.35;2.00;;;;;;;;;;5095624;28;20370;-85
2023/01/01 13:46:42;;;;;;;5.32;2.15;;;;;;;;;;5112214;28;20028;-84
2023/01/01 13:50:00;;;;;;;11.73;1.80;;;;;;;;;;5114478;28;20031;-84
2023/01/01 13:53:11;;;;;;;4.65;1.73;;;;;;;;;;5114320;28;20473;-80
2023/01/01 13:55:54;;;;;;;4.85;1.60;;;;;;;;;;5016562;28;20029;-81
2023/01/01 13:58:40;;;;;;;5.18;1.75;;;;;;;;;;4999548;28;20116;-81
2023/01/01 14:01:11;;;;;;;9.45;2.22;;;;;;;;;;5092563;28;20151;-81
2023/01/01 14:03:46;;;;;;;6.28;1.67;;;;;;;;;;5115563;28;20042;-82
2023/01/01 14:06:18;;;;;;;4.35;1.70;;;;;;;;;;5114138;28;20026;-83
2023/01/01 14:08:43;;;;;;;6.40;1.92;;;;;;;;;;5113898;28;20099;-83
2023/01/01 14:11:22;;;;;;;5.07;2.00;;;;;;;;;;5114164;28;20456;-81
2023/01/01 14:13:48;;;;;;;4.57;1.63;;;;;;;;;;5114076;28;20019;-82
2023/01/01 14:16:14;;;;;;;4.28;1.77;;;;;;;;;;5115230;28;20032;-83
2023/01/01 14:18:41;;;;;;;4.38;1.90;;;;;;;;;;5097153;28;20028;-83
2023/01/01 14:21:16;;;;;;;4.50;1.88;;;;;;;;;;5115210;28;20466;-83
2023/01/01 14:23:44;;;;;;;5.38;1.90;;;;;;;;;;5114185;28;20063;-82
2023/01/01 14:26:12;;;;;;;4.75;1.73;;;;;;;;;;5115274;28;20034;-83
2023/01/01 14:28:38;;;;;;;7.20;1.92;;;;;;;;;;5114305;28;20431;-83
2023/01/01 14:31:10;;;;;;;4.78;1.70;;;;;;;;;;5114838;28;20120;-83
2023/01/01 14:33:36;;;;;;;4.90;1.73;;;;;;;;;;5114278;28;20032;-83
2023/01/01 14:36:13;;;;;;;5.20;1.73;;;;;;;;;;5113858;28;20023;-85
2023/01/01 14:38:43;;;;;;;4.40;1.90;;;;;;;;;;5114028;28;20020;-86
2023/01/01 14:41:27;;;;;;;8.93;1.88;;;;;;;;;;5115396;28;20072;-84
2023/01/01 14:43:56;;;;;;;4.57;1.50;;;;;;;;;;5113604;28;20153;-84
2023/01/01 14:46:24;;;;;;;4.40;1.75;;;;;;;;;;5096346;28;20027;-83
2023/01/01 14:48:52;;;;;;;8.93;2.03;;;;;;;;;;5096197;28;20019;-83
2023/01/01 14:51:21;;;;;;;7.60;1.77;;;;;;;;;;5113274;28;20031;-83
2023/01/01 14:53:47;;;;;;;8.75;1.98;;;;;;;;;;5114460;28;20519;-83
2023/01/01 14:56:30;;;;;;;8.02;1.80;;;;;;;;;;5113304;28;20470;-83
2023/01/01 14:59:03;;;;;;;4.22;1.77;;;;;;;;;;5112971;28;20124;-83
2023/01/01 15:01:28;;;;;;;6.15;2.33;;;;;;;;;;5096096;28;20031;-83
2023/01/01 15:03:59;;;;;;;6.78;1.52;;;;;;;;;;5113227;28;20062;-83